Flight Track Log - Related Links

Times and Time Zones

All times are in EDT time to prevent confusion due to time zone crossing. See the RPA3446 flight status page for this flight to view local times or setup timezone preferences in your user account.

Time Position Orientation Groundspeed Altitude Reporting Facility
EDT Latitude Longitude Course Direction KTS MPH feet Rate Location/Type
06:22PM 39.0500 -84.6833 47° Northeast 163 188 1,600  Level Cincinnati TRACON
06:23PM 39.0500 -84.7333 270° West 172 198 3,100 2,000 Climbing Cincinnati TRACON
06:24PM 39.0500 -84.8167 270° West 268 308 5,200 3,158 Climbing Cincinnati TRACON
06:25PM 38.9721 -84.3504 67° East  Level FlightAware Approximate
06:25PM 39.1333 -84.8333 351° North 295 339 9,100  Level Cincinnati TRACON
06:26PM 39.0151 -84.2290 63° Northeast  Level FlightAware Approximate
06:26PM 39.1944 -84.8050 20° North 287 330 11,000  Level Indianapolis Center
06:27PM 39.0791 -84.1262 44° Northeast  Level FlightAware Approximate
06:27PM 39.2397 -84.7058 59° Northeast 317 365 13,200  Level Indianapolis Center
06:28PM 39.1418 -84.0249 47° Northeast  Level FlightAware Approximate
06:28PM 39.2475 -84.5714 86° East 325 374 16,900  Level Indianapolis Center
06:29PM 39.2378 -84.4514 96° East 334 384 18,300 1,694 Climbing Indianapolis Center
06:30PM 39.2253 -84.3214 97° East 361 415 20,400 1,887 Climbing Indianapolis Center
06:31PM 39.2117 -84.1856 97° East 377 434 22,200 1,344 Climbing Indianapolis Center
06:32PM 39.1989 -84.0458 97° East 390 449 23,200 1,200 Climbing Indianapolis Center
06:33PM 39.2164 -83.9039 81° East 411 473 24,700 1,500 Climbing Indianapolis Center
06:34PM 39.2767 -83.7425 64° Northeast 416 479 26,300 1,306 Climbing Indianapolis Center
06:35PM 39.3303 -83.6022 64° Northeast 431 496 27,400 677 Climbing Indianapolis Center
06:36PM 39.3856 -83.4553 64° Northeast 450 518 27,700 435 Climbing Indianapolis Center
06:37PM 39.4442 -83.2981 64° Northeast 480 552 28,300 968 Climbing Indianapolis Center
06:39PM 39.5136 -83.1125 64° Northeast 483 556 29,700 1,113 Climbing Indianapolis Center
06:40PM 39.5731 -82.9564 64° Northeast 484 557 30,600 629 Climbing Indianapolis Center
06:41PM 39.6128 -82.7917 73° East 487 560 31,000 194 Climbing Indianapolis Center
06:42PM 39.6272 -82.6178 84° East 489 563 31,000  Level Indianapolis Center
06:43PM 39.6578 -82.4497 77° East 486 559 31,000  Level Indianapolis Center
06:44PM 39.7719 -82.3044 44° Northeast 485 558 31,000 -194 Level Indianapolis Center
06:45PM 39.8711 -82.1942 40° Northeast 480 552 30,600 -484 Descending Indianapolis Center
06:46PM 39.9717 -82.0800 41° Northeast 479 551 30,000 -290 Descending Indianapolis Center
06:47PM 40.0725 -81.9656 41° Northeast 479 551 30,000 -435 Level Indianapolis Center
06:48PM 40.1736 -81.8497 41° Northeast 481 554 29,100 -484 Descending Indianapolis Center
06:49PM 40.2611 -81.6956 53° Northeast 479 551 29,000 -48 Descending Indianapolis Center
06:50PM 40.2750 -81.5192 84° East 484 557 29,000  Level Indianapolis Center
06:51PM 40.2806 -81.3428 88° East 485 558 29,000  Level Indianapolis Center
06:52PM 40.2844 -81.1358 89° East 485 558 29,000  Level Indianapolis Center
06:53PM 40.2894 -80.9592 88° East 485 558 29,000  Level Indianapolis Center
06:54PM 40.2925 -80.7836 89° East 485 558 29,000  Level Indianapolis Center
06:55PM 40.2967 -80.6061 88° East 485 558 29,000  Level Indianapolis Center
06:56PM 40.2994 -80.4278 89° East 485 558 29,000  Level Indianapolis Center
06:57PM 40.3031 -80.2522 88° East 484 557 29,000  Level Indianapolis Center
06:58PM 40.3053 -80.0475 89° East 483 556 29,000  Level Indianapolis Center
07:00PM 40.3078 -79.8175 89° East 480 552 29,000  Level Cleveland Center
07:01PM 40.3094 -79.6081 89° East 481 554 29,000  Level Cleveland Center
07:02PM 40.3117 -79.4325 89° East 482 555 29,000  Level Cleveland Center
07:03PM 40.3131 -79.2456 89° East 481 554 29,000  Level Cleveland Center
07:04PM 40.3150 -79.0742 89° East 479 551 29,000  Level Cleveland Center
07:05PM 40.3164 -78.9036 89° East 478 550 29,000  Level Cleveland Center
07:06PM 40.3158 -78.7336 90° East 476 548 29,000  Level Cleveland Center
07:07PM 40.3156 -78.5278 90° East 476 548 29,000  Level Cleveland Center
07:08PM 40.3164 -78.3572 90° East 476 548 29,000 -774 Level Cleveland Center
07:09PM 40.3147 -78.1925 91° East 462 532 27,400 -1,645 Descending Cleveland Center
07:10PM 40.3142 -78.0372 90° East 441 507 25,600 -1,306 Descending Cleveland Center
07:11PM 40.3061 -77.8861 94° East 427 491 24,700 -1,016 Descending Cleveland Center
07:12PM 40.2864 -77.7053 98° East 426 490 23,500 -1,065 Descending Cleveland Center
07:13PM 40.2689 -77.5558 99° East 420 483 22,500 -968 Descending Cleveland Center
07:14PM 40.2525 -77.4136 99° East 403 464 21,500 -968 Descending Cleveland Center
07:15PM 40.2164 -77.2764 109° East 400 460 20,500 -978 Descending Cleveland Center
07:16PM 40.1981 -77.1003 98° East 386 444 19,300 -992 Descending New York Center
07:17PM 40.1864 -76.9661 96° East 374 430 18,300 -900 Descending New York Center
07:18PM 40.1739 -76.8453 98° East 374 430 17,500 -650 Descending New York Center
07:19PM 40.1603 -76.7031 97° East 362 417 17,000 -250 Descending New York Center
07:20PM 40.1478 -76.5769 97° East 355 409 17,000 -559 Level New York Center
07:21PM 40.1353 -76.4481 97° East 355 409 15,900 -1,100 Descending New York Center
07:22PM 40.1239 -76.3358 98° East 350 403 14,800 -950 Descending New York Center
07:23PM 40.1136 -76.1994 96° East 350 403 14,000 -1,059 Descending New York Center
07:24PM 40.1047 -76.0767 95° East 350 403 12,700 -1,426 Descending New York Center
07:25PM 40.1119 -75.9578 85° East 345 397 11,100 -1,587 Descending New York Center
07:26PM 40.1250 -75.8528 81° East 308 354 9,500 -1,412 Descending New York Center
07:27PM 40.1372 -75.7586 80° East 297 342 8,300 -1,271 Descending New York Center
07:28PM 40.1356 -75.6500 91° East 274 315 7,000 -655 Descending New York Center
07:29PM 40.1036 -75.5689 117° Southeast 274 315 7,000 -98 Level New York Center
07:30PM 40.0464 -75.4836 131° Southeast 279 321 6,800 -500 Descending New York Center
07:31PM 39.9808 -75.4547 161° South 279 321 6,000 -407 Descending New York Center
07:32PM 39.9261 -75.4700 192° South 205 236 6,000 -393 Level New York Center
07:33PM 39.9047 -75.5364 247° West 184 212 5,200 -496 Descending New York Center
07:34PM 39.8811 -75.6050 246° West 191 220 5,000 -102 Descending New York Center
07:35PM 39.8642 -75.6606 248° West 191 220 5,000 -314 Level New York Center
07:38PM 39.8000 -75.6000 144° Southeast 179 206 4,000 -313 Descending Philadelphia TRACON
07:39PM 39.8167 -75.5333 72° East 193 222 4,000 -450 Level Philadelphia TRACON
07:40PM 39.8167 -75.4833 90° East 189 217 3,100 -945 Descending Philadelphia TRACON
07:41PM 39.8333 -75.4000 75° East 188 216 2,000 -898 Descending Philadelphia TRACON
07:42PM 39.8500 -75.3500 67° East 132 152 1,200 -750 Descending Philadelphia TRACON
07:43PM 39.8500 -75.3000 90° East 129 148 500 -700 Descending Philadelphia TRACON
07:45PM 39.8722 -75.2409 64° Northeast  Level Estimated
07:52PM 39.8722 -75.2409 247° West  Level Estimated

Login

Don't have an account? Register now (free) for customized features, flight alerts, and more!